Friday, July 20, 2018, 4:58 AM EDT
Back to Local

KLBE, Latrobe / Westmorland

Location: Latrobe, PA, United States Lat: 40.283
Local Time: 4:58 AM EDT ( 8:58 GMT) Lon: -79.4
Time Zone: US/Eastern Elev: 1184 ft

Show me the last for .
Show Decoded

2018-07-20 04:35 METAR KLBE 200835Z AUTO VRB03KT 10SM CLR 20/14 A3006 RMK AO2 =
2018-07-20 04:15 METAR KLBE 200815Z AUTO VRB05KT 10SM CLR 20/14 A3006 RMK AO2 =
2018-07-20 03:55 METAR KLBE 200755Z AUTO 00000KT 10SM CLR 20/14 A3006 RMK AO2 =
2018-07-20 03:35 METAR KLBE 200735Z AUTO 23004KT 10SM CLR 20/14 A3006 RMK AO2 =
2018-07-20 03:15 METAR KLBE 200715Z AUTO 24006KT 10SM CLR 21/14 A3006 RMK AO2 =
2018-07-20 02:55 METAR KLBE 200655Z AUTO 00000KT 10SM CLR 21/14 A3005 RMK AO2 =
2018-07-20 02:35 METAR KLBE 200635Z AUTO 20004KT 10SM CLR 21/14 A3006 RMK AO2 =
2018-07-20 02:15 METAR KLBE 200615Z AUTO VRB03KT 10SM CLR 22/14 A3005 RMK AO2 =
2018-07-20 01:55 METAR KLBE 200555Z AUTO VRB04KT 10SM CLR 22/14 A3005 RMK AO2 =
2018-07-20 01:35 METAR KLBE 200535Z AUTO 15006KT 10SM CLR 22/14 A3006 RMK AO2 =
2018-07-20 01:15 METAR KLBE 200515Z AUTO 13009G14KT 10SM CLR 22/14 A3006 RMK AO2 =
2018-07-20 00:55 METAR KLBE 200455Z AUTO 12007KT 10SM CLR 22/15 A3006 RMK AO2 =
2018-07-20 00:35 METAR KLBE 200435Z AUTO 13005G13KT 10SM CLR 22/15 A3007 RMK AO2 =
2018-07-20 00:15 METAR KLBE 200415Z AUTO 13009KT 10SM CLR 22/15 A3007 RMK AO2 =
2018-07-19 23:55 METAR KLBE 200355Z AUTO 13009KT 10SM CLR 23/15 A3007 RMK AO2 =
2018-07-19 23:35 METAR KLBE 200335Z AUTO 13007KT 10SM CLR 23/15 A3007 RMK AO2 =
2018-07-19 23:15 METAR KLBE 200315Z AUTO 12005KT 10SM CLR 23/15 A3006 RMK AO2 =
2018-07-19 22:55 METAR KLBE 200255Z AUTO 12007KT 10SM CLR 23/15 A3006 RMK AO2 =
2018-07-19 22:35 METAR KLBE 200235Z AUTO VRB06KT 10SM CLR 23/15 A3006 RMK AO2 =
2018-07-19 22:15 METAR KLBE 200215Z AUTO 11004KT 10SM CLR 23/15 A3006 RMK AO2 =
2018-07-19 21:50 METAR KLBE 200150Z 15006KT 10SM SKC 23/15 A3006 =
2018-07-19 20:50 METAR KLBE 200050Z 17009KT 10SM SKC 24/15 A3005 =
2018-07-19 19:50 METAR KLBE 192350Z 15005KT 10SM SKC 26/14 A3005 =
2018-07-19 18:50 METAR KLBE 192250Z 15007KT 10SM SKC 27/14 A3005 =
2018-07-19 17:50 METAR KLBE 192150Z 00000KT 10SM SKC 28/15 A3005 =
2018-07-19 16:50 METAR KLBE 192050Z 15006KT 10SM SKC 28/14 A3007 =
2018-07-19 15:50 METAR KLBE 191950Z 00000KT 10SM SKC 27/13 A3008 =
2018-07-19 14:45 METAR KLBE 191845Z 29007KT 10SM SKC 27/14 A3009 =
2018-07-19 13:45 METAR KLBE 191745Z 17005KT 10SM SKC 26/13 A3011 =
2018-07-19 12:50 METAR KLBE 191650Z 17005KT 10SM SKC 26/13 A3011 =
2018-07-19 11:45 METAR KLBE 191545Z VRB04KT 10SM FEW050 25/13 A3013 =
2018-07-19 10:45 METAR KLBE 191445Z VRB03KT 10SM SKC 24/14 A3013 =
2018-07-19 09:45 METAR KLBE 191345Z VRB04KT 10SM SKC 22/15 A3013 =
2018-07-19 08:45 METAR KLBE 191245Z VRB04KT 10SM SKC 18/16 A3013 =
2018-07-19 07:45 METAR KLBE 191145Z 00000KT 10SM SKC 15/15 A3011 =
2018-07-19 06:45 METAR KLBE 191045Z 00000KT 10SM SKC 13/13 A3011 =
2018-07-19 05:55 METAR KLBE 190955Z AUTO 00000KT 10SM CLR 13/13 A3011 RMK AO2 =
2018-07-19 05:35 METAR KLBE 190935Z AUTO 00000KT 10SM SCT060 13/13 A3011 RMK AO2 =
2018-07-19 05:15 METAR KLBE 190915Z AUTO 00000KT 10SM SCT060 13/13 A3011 RMK AO2 =

Support USWX by starting your Amazon purchase here.